Rainier, Washington
Current Conditions -  °F | °C
As of 6:54 AM on Monday 22 Dec 2014 (Local Time) from KOLM Reporting Station
Clear Clear  
Wind Chill: 38°   Ceiling: Unl
Heat Index: 43°   Visibility: 10mi
Dew Point: 39°   Wind: 8mph
Humidity: 86%   Direction: 80°E
Pressure: 30.29"   Gusts: NA
Location:  46.89°N, 122.69°W
Report Text: KOLM 221454Z AUTO 08007KT 10SM CLR 06/04 A3029 RMK AO2 SLP257 T00610039 53021
Loading
Personal Weather Stations






























Interactive Weather Map New forecast layout! Learn more

10-Day Weather Forecast

Advertisements
Track Severe Weather on mobile